Time;durP1;ratioP1;P1;durP2;ratioP2;P2;SDS_P1;SDS_P2;PMS_P1;PMS_P2;Temp;Humidity;BMP_temperature;BMP_pressure;BME280_temperature;BME280_humidity;BME280_pressure;Samples;Min_cycle;Max_cycle;Signal;HPM_P1;HPM_P2
2022/09/15 00:00:53;;;;;;;;;;;;;;;;;;4970650;28;1057;-73
2022/09/15 00:03:20;;;;;;;;;;;;;;;;;;4970420;28;1338;-73
2022/09/15 00:05:46;;;;;;;;;;;;;;;;;;5054334;28;1312;-73
2022/09/15 00:08:12;;;;;;;;;;;;;;;;;;4970754;28;1307;-73
2022/09/15 00:10:41;;;;;;;;;;;;;;;;;;4967309;28;1923;-73
2022/09/15 00:13:07;;;;;;;;;;;;;;;;;;5036646;28;1399;-73
2022/09/15 00:15:35;;;;;;;;;;;;;;;;;;4970388;28;942;-73
2022/09/15 00:18:02;;;;;;;;;;;;;;;;;;4970365;28;1142;-73
2022/09/15 00:20:28;;;;;;;;;;;;;;;;;;5053694;28;1263;-73
2022/09/15 00:22:54;;;;;;;;;;;;;;;;;;4969846;28;1341;-73
2022/09/15 00:25:20;;;;;;;;;;;;;;;;;;4970492;28;1067;-72
2022/09/15 00:27:48;;;;;;;;;;;;;;;;;;4970352;28;770;-73
2022/09/15 00:30:14;;;;;;;;;;;;;;;;;;5053614;28;1141;-72
2022/09/15 00:32:40;;;;;;;;;;;;;;;;;;4969814;28;1918;-72
2022/09/15 00:35:07;;;;;;;;;;;;;;;;;;5052895;28;1412;-73
2022/09/15 00:37:33;;;;;;;;;;;;;;;;;;4970323;28;1068;-73
2022/09/15 00:39:59;;;;;;;;;;;;;;;;;;4970083;28;1083;-73
2022/09/15 00:42:25;;;;;;;;;;;;;;;;;;4970140;28;1114;-73
2022/09/15 00:44:54;;;;;;;;;;;;;;;;;;4970272;28;1358;-73
2022/09/15 00:47:21;;;;;;;;;;;;;;;;;;4970003;28;1060;-73
2022/09/15 00:49:48;;;;;;;;;;;;;;;;;;4970229;28;1072;-72
2022/09/15 00:52:15;;;;;;;;;;;;;;;;;;4968262;28;1910;-73
2022/09/15 00:54:43;;;;;;;;;;;;;;;;;;4969373;28;1282;-74
2022/09/15 00:57:11;;;;;;;;;;;;;;;;;;5052791;28;1366;-74
2022/09/15 00:59:37;;;;;;;;;;;;;;;;;;5052944;28;1239;-72
2022/09/15 01:02:05;;;;;;;;;;;;;;;;;;4969473;28;1079;-74
2022/09/15 01:04:32;;;;;;;;;;;;;;;;;;5036373;28;1557;-72
2022/09/15 01:06:58;;;;;;;;;;;;;;;;;;4969726;28;1123;-74
2022/09/15 01:09:25;;;;;;;;;;;;;;;;;;4969561;28;1119;-74
2022/09/15 01:11:51;;;;;;;;;;;;;;;;;;4969342;28;1966;-73
2022/09/15 01:14:18;;;;;;;;;;;;;;;;;;4969803;28;1395;-74
2022/09/15 01:16:47;;;;;;;;;;;;;;;;;;5052576;28;862;-73
2022/09/15 01:19:27;;;;;;;;;;;;;;;;;;5036284;28;941;-73
2022/09/15 01:21:54;;;;;;;;;;;;;;;;;;4969438;28;1525;-73
2022/09/15 01:24:41;;;;;;;;;;;;;;;;;;4969600;28;1286;-73
2022/09/15 01:27:17;;;;;;;;;;;;;;;;;;4969095;28;1049;-74
2022/09/15 01:30:04;;;;;;;;;;;;;;;;;;4969610;28;1115;-73
2022/09/15 01:35:20;;;;;;;;;;;;;;;;;;4969381;28;918;-73
2022/09/15 01:37:50;;;;;;;;;;;;;;;;;;5052873;28;910;-73
2022/09/15 01:40:16;;;;;;;;;;;;;;;;;;4969171;28;829;-74
2022/09/15 01:42:43;;;;;;;;;;;;;;;;;;5035815;28;1115;-74
2022/09/15 01:45:12;;;;;;;;;;;;;;;;;;4954351;28;2058;-74
2022/09/15 01:47:38;;;;;;;;;;;;;;;;;;4949588;28;2023;-74
2022/09/15 01:50:05;;;;;;;;;;;;;;;;;;5016056;28;1239;-72
2022/09/15 01:52:32;;;;;;;;;;;;;;;;;;4949725;29;1910;-73
2022/09/15 01:54:59;;;;;;;;;;;;;;;;;;5016071;28;1525;-73
2022/09/15 01:57:25;;;;;;;;;;;;;;;;;;5016096;28;1136;-72
2022/09/15 01:59:52;;;;;;;;;;;;;;;;;;5016059;28;1161;-73
2022/09/15 02:02:19;;;;;;;;;;;;;;;;;;4949925;29;871;-73
2022/09/15 02:04:46;;;;;;;;;;;;;;;;;;5019774;28;1320;-73
2022/09/15 02:07:13;;;;;;;;;;;;;;;;;;5019642;28;1274;-73
2022/09/15 02:09:40;;;;;;;;;;;;;;;;;;4953030;28;1079;-73
2022/09/15 02:12:09;;;;;;;;;;;;;;;;;;5019207;28;1981;-74
2022/09/15 02:14:38;;;;;;;;;;;;;;;;;;4954874;28;2008;-74
2022/09/15 02:17:04;;;;;;;;;;;;;;;;;;5021591;28;1773;-73
2022/09/15 02:19:32;;;;;;;;;;;;;;;;;;5017521;28;2094;-73
2022/09/15 02:21:59;;;;;;;;;;;;;;;;;;4952312;28;1157;-73
2022/09/15 02:24:28;;;;;;;;;;;;;;;;;;5019646;28;1304;-73
2022/09/15 02:26:55;;;;;;;;;;;;;;;;;;4952922;28;1118;-73
2022/09/15 02:29:21;;;;;;;;;;;;;;;;;;4952304;28;2097;-73
2022/09/15 02:31:47;;;;;;;;;;;;;;;;;;4952498;28;1915;-73
2022/09/15 02:34:15;;;;;;;;;;;;;;;;;;4952751;28;1306;-73
2022/09/15 02:36:43;;;;;;;;;;;;;;;;;;4952911;29;1064;-73
2022/09/15 02:39:10;;;;;;;;;;;;;;;;;;4951532;28;1908;-73
2022/09/15 02:41:36;;;;;;;;;;;;;;;;;;4952466;28;1048;-72
2022/09/15 02:44:03;;;;;;;;;;;;;;;;;;5002415;28;1407;-73
2022/09/15 02:46:29;;;;;;;;;;;;;;;;;;5053640;28;692;-73
2022/09/15 02:48:56;;;;;;;;;;;;;;;;;;5053803;28;802;-73
2022/09/15 02:51:22;;;;;;;;;;;;;;;;;;5053096;28;972;-74
2022/09/15 02:53:50;;;;;;;;;;;;;;;;;;4997135;22;3444;-75
2022/09/15 02:56:16;;;;;;;;;;;;;;;;;;4951908;29;1125;-74
2022/09/15 02:58:43;;;;;;;;;;;;;;;;;;4952476;28;1100;-75
2022/09/15 03:01:14;;;;;;;;;;;;;;;;;;4952499;29;997;-75
2022/09/15 03:03:40;;;;;;;;;;;;;;;;;;4966114;28;1335;-75
2022/09/15 03:06:20;;;;;;;;;;;;;;;;;;4972967;28;1064;-78
2022/09/15 03:08:47;;;;;;;;;;;;;;;;;;4972853;28;961;-76
2022/09/15 03:11:15;;;;;;;;;;;;;;;;;;4971961;28;1068;-75
2022/09/15 03:13:42;;;;;;;;;;;;;;;;;;4970446;28;1918;-75
2022/09/15 03:16:08;;;;;;;;;;;;;;;;;;4970340;28;1375;-76
2022/09/15 03:18:35;;;;;;;;;;;;;;;;;;4972820;28;1004;-75
2022/09/15 03:21:01;;;;;;;;;;;;;;;;;;4971443;28;790;-77
2022/09/15 03:23:27;;;;;;;;;;;;;;;;;;4953945;28;1333;-77
2022/09/15 03:25:54;;;;;;;;;;;;;;;;;;4971642;28;873;-77
2022/09/15 03:28:21;;;;;;;;;;;;;;;;;;4970098;28;1287;-77
2022/09/15 03:30:47;;;;;;;;;;;;;;;;;;4971215;28;1024;-76
2022/09/15 03:33:14;;;;;;;;;;;;;;;;;;4970555;28;1982;-77
2022/09/15 03:35:40;;;;;;;;;;;;;;;;;;4971241;28;1139;-76
2022/09/15 03:38:06;;;;;;;;;;;;;;;;;;4953958;28;1165;-77
2022/09/15 03:40:32;;;;;;;;;;;;;;;;;;4971145;28;1067;-77
2022/09/15 03:42:59;;;;;;;;;;;;;;;;;;4970822;28;1426;-77
2022/09/15 03:45:26;;;;;;;;;;;;;;;;;;4970995;28;1068;-77
2022/09/15 03:47:52;;;;;;;;;;;;;;;;;;4970711;28;1057;-77
2022/09/15 03:50:19;;;;;;;;;;;;;;;;;;4953968;28;1354;-77
2022/09/15 03:52:45;;;;;;;;;;;;;;;;;;4977561;28;1986;-77
2022/09/15 03:55:11;;;;;;;;;;;;;;;;;;5052576;28;791;-77
2022/09/15 03:57:38;;;;;;;;;;;;;;;;;;5052460;28;787;-77
2022/09/15 04:00:05;;;;;;;;;;;;;;;;;;5052624;28;1056;-77
2022/09/15 04:02:32;;;;;;;;;;;;;;;;;;5048542;28;1419;-76
2022/09/15 04:04:59;;;;;;;;;;;;;;;;;;5034739;28;1087;-76
2022/09/15 04:07:25;;;;;;;;;;;;;;;;;;5045342;28;1330;-77
2022/09/15 04:09:51;;;;;;;;;;;;;;;;;;5052641;28;1420;-76
2022/09/15 04:12:17;;;;;;;;;;;;;;;;;;5051329;28;1953;-76
2022/09/15 04:14:43;;;;;;;;;;;;;;;;;;5046788;28;1268;-75
2022/09/15 04:17:10;;;;;;;;;;;;;;;;;;5049198;28;1879;-76
2022/09/15 04:19:38;;;;;;;;;;;;;;;;;;5052439;28;1382;-76
2022/09/15 04:22:04;;;;;;;;;;;;;;;;;;5054298;28;1410;-76
2022/09/15 04:24:30;;;;;;;;;;;;;;;;;;5049280;28;1423;-76
2022/09/15 04:26:56;;;;;;;;;;;;;;;;;;5050230;28;1399;-76
2022/09/15 04:29:23;;;;;;;;;;;;;;;;;;5049494;28;1250;-77
2022/09/15 04:31:51;;;;;;;;;;;;;;;;;;5049427;28;870;-75
2022/09/15 04:34:17;;;;;;;;;;;;;;;;;;5050826;28;1922;-76
2022/09/15 04:36:45;;;;;;;;;;;;;;;;;;5048045;28;1135;-77
2022/09/15 04:39:12;;;;;;;;;;;;;;;;;;5056819;28;1434;-75
2022/09/15 04:41:39;;;;;;;;;;;;;;;;;;5048752;28;1121;-75
2022/09/15 04:44:05;;;;;;;;;;;;;;;;;;5051007;28;1536;-76
2022/09/15 04:46:31;;;;;;;;;;;;;;;;;;5048936;28;1114;-75
2022/09/15 04:48:57;;;;;;;;;;;;;;;;;;5048275;28;1119;-76
2022/09/15 04:51:23;;;;;;;;;;;;;;;;;;5049371;28;1466;-76
2022/09/15 04:53:51;;;;;;;;;;;;;;;;;;5002983;28;1926;-76
2022/09/15 04:56:18;;;;;;;;;;;;;;;;;;4967688;28;1150;-76
2022/09/15 04:58:44;;;;;;;;;;;;;;;;;;4967919;28;1003;-76
2022/09/15 05:01:12;;;;;;;;;;;;;;;;;;4950441;28;1135;-75
2022/09/15 05:03:38;;;;;;;;;;;;;;;;;;4970848;28;1491;-75
2022/09/15 05:06:05;;;;;;;;;;;;;;;;;;4969647;28;1106;-76
2022/09/15 05:08:31;;;;;;;;;;;;;;;;;;4967952;28;1020;-76
2022/09/15 05:11:00;;;;;;;;;;;;;;;;;;4973169;28;1395;-75
2022/09/15 05:13:26;;;;;;;;;;;;;;;;;;4967370;28;1931;-76
2022/09/15 05:15:52;;;;;;;;;;;;;;;;;;4967675;28;977;-76
2022/09/15 05:18:18;;;;;;;;;;;;;;;;;;4967605;28;833;-76
2022/09/15 05:20:44;;;;;;;;;;;;;;;;;;4967547;28;1427;-76
2022/09/15 05:23:11;;;;;;;;;;;;;;;;;;4966642;28;1447;-76
2022/09/15 05:25:37;;;;;;;;;;;;;;;;;;4966256;28;775;-76
2022/09/15 05:28:05;;;;;;;;;;;;;;;;;;4971592;28;1408;-76
2022/09/15 05:30:31;;;;;;;;;;;;;;;;;;4972279;28;1104;-76
2022/09/15 05:32:57;;;;;;;;;;;;;;;;;;4964476;28;1984;-75
2022/09/15 05:35:23;;;;;;;;;;;;;;;;;;4965032;28;1403;-74
2022/09/15 05:37:49;;;;;;;;;;;;;;;;;;4972983;28;1612;-76
2022/09/15 05:40:16;;;;;;;;;;;;;;;;;;4970414;28;1442;-75
2022/09/15 05:42:42;;;;;;;;;;;;;;;;;;4972999;28;1499;-75
2022/09/15 05:45:10;;;;;;;;;;;;;;;;;;4969417;28;1170;-75
2022/09/15 05:47:36;;;;;;;;;;;;;;;;;;4969826;28;1508;-75
2022/09/15 05:50:02;;;;;;;;;;;;;;;;;;4973566;28;1463;-75
2022/09/15 05:52:28;;;;;;;;;;;;;;;;;;4973368;28;1910;-76
2022/09/15 05:54:54;;;;;;;;;;;;;;;;;;4968147;28;992;-75
2022/09/15 05:57:20;;;;;;;;;;;;;;;;;;4950037;29;942;-75
2022/09/15 05:59:47;;;;;;;;;;;;;;;;;;4949911;29;1076;-75
2022/09/15 06:02:14;;;;;;;;;;;;;;;;;;4949837;28;1303;-75
2022/09/15 06:04:43;;;;;;;;;;;;;;;;;;4949919;29;961;-76
2022/09/15 06:07:09;;;;;;;;;;;;;;;;;;4949637;29;658;-75
2022/09/15 06:09:35;;;;;;;;;;;;;;;;;;4949893;29;953;-75
2022/09/15 06:12:02;;;;;;;;;;;;;;;;;;4949359;28;1331;-75
2022/09/15 06:14:28;;;;;;;;;;;;;;;;;;4949988;29;1968;-75
2022/09/15 06:16:54;;;;;;;;;;;;;;;;;;4935883;29;1128;-75
2022/09/15 06:19:22;;;;;;;;;;;;;;;;;;4964102;28;1575;-75
2022/09/15 06:21:48;;;;;;;;;;;;;;;;;;4971593;28;1048;-75
2022/09/15 06:24:14;;;;;;;;;;;;;;;;;;4968905;28;1352;-75
2022/09/15 06:26:40;;;;;;;;;;;;;;;;;;4952072;28;913;-76
2022/09/15 06:29:07;;;;;;;;;;;;;;;;;;4968898;28;1004;-75
2022/09/15 06:31:34;;;;;;;;;;;;;;;;;;4968237;28;1040;-75
2022/09/15 06:34:01;;;;;;;;;;;;;;;;;;4951301;28;1981;-75
2022/09/15 06:36:29;;;;;;;;;;;;;;;;;;4968648;28;1123;-75
2022/09/15 06:38:55;;;;;;;;;;;;;;;;;;4968967;28;830;-75
2022/09/15 06:41:22;;;;;;;;;;;;;;;;;;4951136;28;1332;-75
2022/09/15 06:43:48;;;;;;;;;;;;;;;;;;4968630;28;1300;-75
2022/09/15 06:46:15;;;;;;;;;;;;;;;;;;4951044;28;1403;-75
2022/09/15 06:48:41;;;;;;;;;;;;;;;;;;4968443;28;1298;-75
2022/09/15 06:51:08;;;;;;;;;;;;;;;;;;4971698;28;795;-74
2022/09/15 06:53:36;;;;;;;;;;;;;;;;;;4954042;28;1973;-75
2022/09/15 06:56:03;;;;;;;;;;;;;;;;;;4971928;28;1072;-75
2022/09/15 06:58:29;;;;;;;;;;;;;;;;;;4971738;28;1080;-75
2022/09/15 07:00:59;;;;;;;;;;;;;;;;;;4971981;28;1087;-74
2022/09/15 07:03:25;;;;;;;;;;;;;;;;;;4986616;28;1352;-75
2022/09/15 07:05:52;;;;;;;;;;;;;;;;;;4971164;28;878;-75
2022/09/15 07:08:18;;;;;;;;;;;;;;;;;;4971536;28;1080;-75
2022/09/15 07:10:45;;;;;;;;;;;;;;;;;;4971713;28;1112;-75
2022/09/15 07:13:12;;;;;;;;;;;;;;;;;;4953891;28;1993;-75
2022/09/15 07:15:38;;;;;;;;;;;;;;;;;;4971585;28;1083;-75
2022/09/15 07:18:05;;;;;;;;;;;;;;;;;;4971321;28;877;-75
2022/09/15 07:20:31;;;;;;;;;;;;;;;;;;4954335;28;1215;-75
2022/09/15 07:22:57;;;;;;;;;;;;;;;;;;4970814;28;1301;-75
2022/09/15 07:25:24;;;;;;;;;;;;;;;;;;4971010;28;957;-75
2022/09/15 07:27:51;;;;;;;;;;;;;;;;;;4971470;28;1084;-76
2022/09/15 07:30:17;;;;;;;;;;;;;;;;;;4971176;28;1139;-76
2022/09/15 07:32:43;;;;;;;;;;;;;;;;;;4971044;28;1399;-75
2022/09/15 07:35:10;;;;;;;;;;;;;;;;;;4970872;28;1975;-75
2022/09/15 07:37:36;;;;;;;;;;;;;;;;;;4985871;28;1064;-75
2022/09/15 07:40:02;;;;;;;;;;;;;;;;;;4990736;28;807;-75
2022/09/15 07:42:28;;;;;;;;;;;;;;;;;;4989759;28;1330;-75
2022/09/15 07:44:56;;;;;;;;;;;;;;;;;;4990506;28;1064;-75
2022/09/15 07:47:22;;;;;;;;;;;;;;;;;;4990266;28;1147;-74
2022/09/15 07:49:49;;;;;;;;;;;;;;;;;;4990724;28;1076;-75
2022/09/15 07:52:15;;;;;;;;;;;;;;;;;;4972650;28;1426;-75
2022/09/15 07:54:41;;;;;;;;;;;;;;;;;;4990273;28;1927;-75
2022/09/15 07:57:07;;;;;;;;;;;;;;;;;;4989154;28;949;-75
2022/09/15 07:59:33;;;;;;;;;;;;;;;;;;4989865;28;1130;-76
2022/09/15 08:02:01;;;;;;;;;;;;;;;;;;4989636;28;1400;-74
2022/09/15 08:04:27;;;;;;;;;;;;;;;;;;4990028;28;960;-74
2022/09/15 08:06:53;;;;;;;;;;;;;;;;;;4990622;28;1056;-75
2022/09/15 08:09:20;;;;;;;;;;;;;;;;;;4990145;28;913;-75
2022/09/15 08:11:46;;;;;;;;;;;;;;;;;;4989765;28;1063;-75
2022/09/15 08:14:12;;;;;;;;;;;;;;;;;;4989993;28;1978;-75
2022/09/15 08:16:38;;;;;;;;;;;;;;;;;;4989848;28;957;-75
2022/09/15 08:19:06;;;;;;;;;;;;;;;;;;4989987;28;1420;-75
2022/09/15 08:21:32;;;;;;;;;;;;;;;;;;4989611;28;1056;-76
2022/09/15 08:24:00;;;;;;;;;;;;;;;;;;4989869;28;1351;-75
2022/09/15 08:26:26;;;;;;;;;;;;;;;;;;4972845;28;1435;-75
2022/09/15 08:28:52;;;;;;;;;;;;;;;;;;4970457;28;1080;-75
2022/09/15 08:31:18;;;;;;;;;;;;;;;;;;4970003;28;1064;-76
2022/09/15 08:33:46;;;;;;;;;;;;;;;;;;4970153;28;1915;-75
2022/09/15 08:36:14;;;;;;;;;;;;;;;;;;4952807;28;1219;-75
2022/09/15 08:38:40;;;;;;;;;;;;;;;;;;4970396;28;945;-74
2022/09/15 08:41:07;;;;;;;;;;;;;;;;;;4970124;28;827;-76
2022/09/15 08:43:35;;;;;;;;;;;;;;;;;;4952385;28;1520;-75
2022/09/15 08:46:02;;;;;;;;;;;;;;;;;;4970357;28;1076;-75
2022/09/15 08:48:29;;;;;;;;;;;;;;;;;;4970078;28;1111;-75
2022/09/15 08:50:56;;;;;;;;;;;;;;;;;;4969715;28;1127;-75
2022/09/15 08:53:25;;;;;;;;;;;;;;;;;;4969241;28;1931;-75
2022/09/15 08:55:52;;;;;;;;;;;;;;;;;;4970144;28;1072;-75
2022/09/15 09:00:55;;;;;;;;;;;;;;;;;;4987417;28;1948;-75
2022/09/15 09:03:25;;;;;;;;;;;;;;;;;;4893141;28;959;-75
2022/09/15 09:05:54;;;;;;;;;;;;;;;;;;4893528;29;998;-76
2022/09/15 09:08:25;;;;;;;;;;;;;;;;;;4893908;29;1427;-75
2022/09/15 09:10:51;;;;;;;;;;;;;;;;;;4893206;29;785;-75
2022/09/15 09:13:20;;;;;;;;;;;;;;;;;;4892646;29;1057;-75
2022/09/15 09:15:49;;;;;;;;;;;;;;;;;;4924100;28;1981;-75
2022/09/15 09:18:21;;;;;;;;;;;;;;;;;;4893875;28;887;-75
2022/09/15 09:20:49;;;;;;;;;;;;;;;;;;4894261;28;974;-74
2022/09/15 09:23:15;;;;;;;;;;;;;;;;;;4893336;29;805;-75
2022/09/15 09:25:43;;;;;;;;;;;;;;;;;;4893667;29;1013;-75
2022/09/15 09:28:12;;;;;;;;;;;;;;;;;;4893614;28;1120;-74
2022/09/15 09:30:38;;;;;;;;;;;;;;;;;;4923742;28;1437;-75
2022/09/15 09:33:09;;;;;;;;;;;;;;;;;;4893376;29;1289;-75
2022/09/15 09:35:36;;;;;;;;;;;;;;;;;;4893343;28;1968;-74
2022/09/15 09:38:02;;;;;;;;;;;;;;;;;;4893467;28;1393;-75
2022/09/15 09:40:30;;;;;;;;;;;;;;;;;;4893306;29;1376;-75
2022/09/15 09:42:57;;;;;;;;;;;;;;;;;;4893135;29;1065;-74
2022/09/15 09:45:23;;;;;;;;;;;;;;;;;;4893320;29;1068;-76
2022/09/15 09:47:49;;;;;;;;;;;;;;;;;;4888155;28;2224;-75
2022/09/15 09:50:35;;;;;;;;;;;;;;;;;;4910901;29;1447;-75
2022/09/15 09:53:10;;;;;;;;;;;;;;;;;;4911750;29;1053;-74
2022/09/15 09:55:36;;;;;;;;;;;;;;;;;;4909033;28;1974;-75
2022/09/15 09:58:11;;;;;;;;;;;;;;;;;;4940103;28;1208;-75
2022/09/15 10:00:38;;;;;;;;;;;;;;;;;;4928861;28;1435;-75
2022/09/15 10:03:09;;;;;;;;;;;;;;;;;;4945473;29;1140;-75
2022/09/15 10:05:35;;;;;;;;;;;;;;;;;;4930365;29;1008;-75
2022/09/15 10:08:01;;;;;;;;;;;;;;;;;;4931056;29;1120;-75
2022/09/15 10:10:31;;;;;;;;;;;;;;;;;;4945567;28;1374;-75
2022/09/15 10:12:57;;;;;;;;;;;;;;;;;;4930496;29;1116;-75
2022/09/15 10:15:25;;;;;;;;;;;;;;;;;;4916817;29;1915;-75
2022/09/15 10:17:51;;;;;;;;;;;;;;;;;;4894750;28;1189;-75
2022/09/15 10:20:23;;;;;;;;;;;;;;;;;;4912098;28;1393;-75
2022/09/15 10:22:49;;;;;;;;;;;;;;;;;;4911302;29;1089;-75
2022/09/15 10:25:32;;;;;;;;;;;;;;;;;;4901670;29;1529;-75
2022/09/15 10:28:02;;;;;;;;;;;;;;;;;;4913781;29;1149;-75
2022/09/15 10:30:30;;;;;;;;;;;;;;;;;;4914794;29;1401;-75
2022/09/15 10:32:56;;;;;;;;;;;;;;;;;;4914498;29;1072;-75
2022/09/15 10:35:22;;;;;;;;;;;;;;;;;;4914980;29;1978;-75
2022/09/15 10:37:53;;;;;;;;;;;;;;;;;;4913445;29;1121;-76
2022/09/15 10:40:22;;;;;;;;;;;;;;;;;;4914754;29;1351;-75
2022/09/15 10:42:50;;;;;;;;;;;;;;;;;;4914178;29;800;-75
2022/09/15 10:45:24;;;;;;;;;;;;;;;;;;4914764;29;962;-75
2022/09/15 10:47:55;;;;;;;;;;;;;;;;;;4914610;29;1124;-75
2022/09/15 10:50:23;;;;;;;;;;;;;;;;;;4914683;29;1374;-75
2022/09/15 10:52:53;;;;;;;;;;;;;;;;;;4914216;29;1148;-76
2022/09/15 10:55:24;;;;;;;;;;;;;;;;;;4914544;29;1962;-75
2022/09/15 10:58:00;;;;;;;;;;;;;;;;;;4914767;29;605;-75
2022/09/15 11:00:28;;;;;;;;;;;;;;;;;;4914271;28;1399;-75
2022/09/15 11:03:00;;;;;;;;;;;;;;;;;;4914055;29;1077;-74
2022/09/15 11:05:39;;;;;;;;;;;;;;;;;;4914595;29;1158;-75
2022/09/15 11:08:12;;;;;;;;;;;;;;;;;;4914485;29;886;-74
2022/09/15 11:10:39;;;;;;;;;;;;;;;;;;4913988;29;1341;-75
2022/09/15 11:13:07;;;;;;;;;;;;;;;;;;4914039;29;1171;-75
2022/09/15 11:15:36;;;;;;;;;;;;;;;;;;4914217;29;1976;-75
2022/09/15 11:18:22;;;;;;;;;;;;;;;;;;4914141;29;915;-75
2022/09/15 11:20:52;;;;;;;;;;;;;;;;;;4913832;29;911;-74
2022/09/15 11:23:20;;;;;;;;;;;;;;;;;;4914049;29;800;-75
2022/09/15 11:25:47;;;;;;;;;;;;;;;;;;4914062;29;1070;-75
2022/09/15 11:28:14;;;;;;;;;;;;;;;;;;4914027;29;1073;-75
2022/09/15 11:30:41;;;;;;;;;;;;;;;;;;4913943;29;1349;-75
2022/09/15 11:33:10;;;;;;;;;;;;;;;;;;4913677;29;883;-75
2022/09/15 11:35:39;;;;;;;;;;;;;;;;;;4912939;29;1965;-76
2022/09/15 11:38:11;;;;;;;;;;;;;;;;;;4913053;29;1570;-75
2022/09/15 11:40:38;;;;;;;;;;;;;;;;;;4912848;29;1431;-75
2022/09/15 11:43:06;;;;;;;;;;;;;;;;;;4912672;29;1129;-75
2022/09/15 11:45:33;;;;;;;;;;;;;;;;;;4913740;29;891;-77
2022/09/15 11:47:59;;;;;;;;;;;;;;;;;;4913732;29;1129;-76
2022/09/15 11:50:27;;;;;;;;;;;;;;;;;;4914098;29;1283;-75
2022/09/15 11:52:56;;;;;;;;;;;;;;;;;;4913493;29;933;-76
2022/09/15 11:55:24;;;;;;;;;;;;;;;;;;4912608;29;1989;-75
2022/09/15 11:57:52;;;;;;;;;;;;;;;;;;4913567;28;1056;-75
2022/09/15 12:00:18;;;;;;;;;;;;;;;;;;4912214;29;1308;-76
2022/09/15 12:02:46;;;;;;;;;;;;;;;;;;4927733;28;1208;-76
2022/09/15 12:05:13;;;;;;;;;;;;;;;;;;4912049;29;1183;-75
2022/09/15 12:07:41;;;;;;;;;;;;;;;;;;4913325;29;1112;-75
2022/09/15 12:10:14;;;;;;;;;;;;;;;;;;4913283;29;1361;-76
2022/09/15 12:12:40;;;;;;;;;;;;;;;;;;4912972;29;1065;-75
2022/09/15 12:15:07;;;;;;;;;;;;;;;;;;4913152;29;1915;-75
2022/09/15 12:17:34;;;;;;;;;;;;;;;;;;4913265;29;1109;-75
2022/09/15 12:20:01;;;;;;;;;;;;;;;;;;4912420;29;1370;-75
2022/09/15 12:22:28;;;;;;;;;;;;;;;;;;4913190;29;864;-74
2022/09/15 12:24:56;;;;;;;;;;;;;;;;;;4913361;29;711;-75
2022/09/15 12:27:24;;;;;;;;;;;;;;;;;;4913479;29;796;-77
2022/09/15 12:29:50;;;;;;;;;;;;;;;;;;4913219;29;1401;-76
2022/09/15 12:32:17;;;;;;;;;;;;;;;;;;4913342;29;1069;-76
2022/09/15 12:34:54;;;;;;;;;;;;;;;;;;4915597;29;1994;-75
2022/09/15 12:37:20;;;;;;;;;;;;;;;;;;4913559;29;1057;-76
2022/09/15 12:39:47;;;;;;;;;;;;;;;;;;4911636;29;1288;-75
2022/09/15 12:42:17;;;;;;;;;;;;;;;;;;4912522;29;1065;-75
2022/09/15 12:44:46;;;;;;;;;;;;;;;;;;4912893;29;1197;-75
2022/09/15 12:47:24;;;;;;;;;;;;;;;;;;4913204;29;1081;-76
2022/09/15 12:49:51;;;;;;;;;;;;;;;;;;4911804;29;1277;-76
2022/09/15 12:52:18;;;;;;;;;;;;;;;;;;4912543;29;1129;-76
2022/09/15 12:54:44;;;;;;;;;;;;;;;;;;4912757;29;1911;-77
2022/09/15 12:57:16;;;;;;;;;;;;;;;;;;4912906;29;1045;-77
2022/09/15 12:59:42;;;;;;;;;;;;;;;;;;4912628;28;1370;-76
2022/09/15 13:02:15;;;;;;;;;;;;;;;;;;4912598;29;1096;-76
2022/09/15 13:04:51;;;;;;;;;;;;;;;;;;4912323;29;1364;-76
2022/09/15 13:07:22;;;;;;;;;;;;;;;;;;4912818;28;1127;-76
2022/09/15 13:09:55;;;;;;;;;;;;;;;;;;4912407;29;1372;-76
2022/09/15 13:12:22;;;;;;;;;;;;;;;;;;4911197;29;847;-76
2022/09/15 13:14:48;;;;;;;;;;;;;;;;;;4912536;29;1966;-77
2022/09/15 13:17:17;;;;;;;;;;;;;;;;;;4927237;28;1351;-76
2022/09/15 13:19:45;;;;;;;;;;;;;;;;;;4912318;29;1306;-76
2022/09/15 13:22:16;;;;;;;;;;;;;;;;;;4912051;29;1085;-77
2022/09/15 13:24:44;;;;;;;;;;;;;;;;;;4912425;29;915;-76
2022/09/15 13:27:10;;;;;;;;;;;;;;;;;;4926532;28;1120;-76
2022/09/15 13:29:37;;;;;;;;;;;;;;;;;;4911161;29;1307;-76
2022/09/15 13:32:06;;;;;;;;;;;;;;;;;;4912145;29;886;-77
2022/09/15 13:34:51;;;;;;;;;;;;;;;;;;4912066;29;1076;-76
2022/09/15 13:37:24;;;;;;;;;;;;;;;;;;4911605;29;788;-76
2022/09/15 13:39:53;;;;;;;;;;;;;;;;;;4908960;29;1449;-76
2022/09/15 13:42:23;;;;;;;;;;;;;;;;;;4912996;28;1353;-75
2022/09/15 13:45:04;;;;;;;;;;;;;;;;;;4939165;28;1663;-76
2022/09/15 13:47:36;;;;;;;;;;;;;;;;;;4908376;29;1421;-76
2022/09/15 13:50:08;;;;;;;;;;;;;;;;;;4915403;28;1639;-76
2022/09/15 13:52:49;;;;;;;;;;;;;;;;;;4912122;29;1619;-77
2022/09/15 13:55:19;;;;;;;;;;;;;;;;;;4902915;29;1978;-76
2022/09/15 13:57:48;;;;;;;;;;;;;;;;;;4935555;28;1334;-77
2022/09/15 14:00:15;;;;;;;;;;;;;;;;;;5015350;28;1326;-77
2022/09/15 14:02:45;;;;;;;;;;;;;;;;;;4948107;28;1487;-76
2022/09/15 14:05:12;;;;;;;;;;;;;;;;;;4911442;29;1426;-76
2022/09/15 14:07:39;;;;;;;;;;;;;;;;;;4916316;29;1397;-76
2022/09/15 14:10:06;;;;;;;;;;;;;;;;;;4917284;28;1364;-76
2022/09/15 14:12:33;;;;;;;;;;;;;;;;;;4915625;29;1471;-76
2022/09/15 14:14:59;;;;;;;;;;;;;;;;;;4907379;29;1581;-76
2022/09/15 14:17:27;;;;;;;;;;;;;;;;;;4902963;29;1962;-76
2022/09/15 14:19:54;;;;;;;;;;;;;;;;;;4895932;29;1313;-77
2022/09/15 14:22:26;;;;;;;;;;;;;;;;;;4879377;29;1334;-76
2022/09/15 14:24:52;;;;;;;;;;;;;;;;;;4896399;29;1127;-76
2022/09/15 14:27:20;;;;;;;;;;;;;;;;;;4922909;29;1502;-76
2022/09/15 14:29:49;;;;;;;;;;;;;;;;;;4917256;29;1381;-77
2022/09/15 14:32:15;;;;;;;;;;;;;;;;;;4916947;28;1132;-76
2022/09/15 14:34:41;;;;;;;;;;;;;;;;;;4917139;28;865;-76
2022/09/15 14:37:08;;;;;;;;;;;;;;;;;;4916985;28;1914;-74
2022/09/15 14:39:39;;;;;;;;;;;;;;;;;;4916347;29;1384;-77
2022/09/15 14:42:08;;;;;;;;;;;;;;;;;;4933684;28;1112;-76
2022/09/15 14:44:38;;;;;;;;;;;;;;;;;;4934006;28;957;-76
2022/09/15 14:47:10;;;;;;;;;;;;;;;;;;4907262;28;1509;-76
2022/09/15 14:49:36;;;;;;;;;;;;;;;;;;4907121;29;1484;-76
2022/09/15 14:52:02;;;;;;;;;;;;;;;;;;4908958;29;1304;-77
2022/09/15 14:54:30;;;;;;;;;;;;;;;;;;4896038;29;1073;-76
2022/09/15 14:56:59;;;;;;;;;;;;;;;;;;4896099;29;1923;-76
2022/09/15 14:59:27;;;;;;;;;;;;;;;;;;4910766;28;1380;-75
2022/09/15 15:01:55;;;;;;;;;;;;;;;;;;4927548;22;3748;-75
2022/09/15 15:04:23;;;;;;;;;;;;;;;;;;5047275;28;1135;-75
2022/09/15 15:06:51;;;;;;;;;;;;;;;;;;4970468;28;1104;-76
2022/09/15 15:09:19;;;;;;;;;;;;;;;;;;5037907;28;1140;-76
2022/09/15 15:11:47;;;;;;;;;;;;;;;;;;4970617;28;1472;-75
2022/09/15 15:14:15;;;;;;;;;;;;;;;;;;4939585;28;1339;-76
2022/09/15 15:16:49;;;;;;;;;;;;;;;;;;4942163;28;1931;-77
2022/09/15 15:19:29;;;;;;;;;;;;;;;;;;4949634;28;1332;-76
2022/09/15 15:21:55;;;;;;;;;;;;;;;;;;4945110;28;1298;-76
2022/09/15 15:24:22;;;;;;;;;;;;;;;;;;4948889;28;1506;-77
2022/09/15 15:26:48;;;;;;;;;;;;;;;;;;4948998;28;1404;-76
2022/09/15 15:29:33;;;;;;;;;;;;;;;;;;4996588;28;1418;-76
2022/09/15 15:32:04;;;;;;;;;;;;;;;;;;4985222;28;1488;-75
2022/09/15 15:34:30;;;;;;;;;;;;;;;;;;4949263;29;1159;-77
2022/09/15 15:37:01;;;;;;;;;;;;;;;;;;4949585;28;1962;-75
2022/09/15 15:39:28;;;;;;;;;;;;;;;;;;4948188;28;779;-73
2022/09/15 15:41:59;;;;;;;;;;;;;;;;;;4949852;28;1388;-74
2022/09/15 15:44:25;;;;;;;;;;;;;;;;;;4948907;29;1282;-75
2022/09/15 15:46:52;;;;;;;;;;;;;;;;;;5020994;28;1244;-74
2022/09/15 15:49:21;;;;;;;;;;;;;;;;;;5050333;28;1102;-73
2022/09/15 15:51:47;;;;;;;;;;;;;;;;;;5003740;28;1463;-74
2022/09/15 15:54:13;;;;;;;;;;;;;;;;;;4948096;28;1231;-76
2022/09/15 15:56:39;;;;;;;;;;;;;;;;;;4948129;29;1906;-73
2022/09/15 15:59:06;;;;;;;;;;;;;;;;;;4945820;28;1495;-77
2022/09/15 16:01:32;;;;;;;;;;;;;;;;;;4942134;28;1507;-72
2022/09/15 16:03:58;;;;;;;;;;;;;;;;;;4946505;29;1282;-74
2022/09/15 16:06:26;;;;;;;;;;;;;;;;;;4949647;28;909;-73
2022/09/15 16:08:52;;;;;;;;;;;;;;;;;;4948875;28;1438;-73
2022/09/15 16:11:19;;;;;;;;;;;;;;;;;;4940863;28;1435;-73
2022/09/15 16:13:47;;;;;;;;;;;;;;;;;;4947160;28;1471;-74
2022/09/15 16:16:13;;;;;;;;;;;;;;;;;;4940354;28;1942;-74
2022/09/15 16:18:40;;;;;;;;;;;;;;;;;;4949175;28;1535;-73
2022/09/15 16:21:06;;;;;;;;;;;;;;;;;;4945301;28;1435;-75
2022/09/15 16:23:35;;;;;;;;;;;;;;;;;;4942539;29;1235;-71
2022/09/15 16:26:01;;;;;;;;;;;;;;;;;;4948766;28;1404;-74
2022/09/15 16:28:28;;;;;;;;;;;;;;;;;;4948188;28;1580;-72
2022/09/15 16:30:55;;;;;;;;;;;;;;;;;;4947623;28;1262;-75
2022/09/15 16:33:21;;;;;;;;;;;;;;;;;;4945019;28;1495;-75
2022/09/15 16:35:50;;;;;;;;;;;;;;;;;;4946764;28;2079;-74
2022/09/15 16:38:18;;;;;;;;;;;;;;;;;;4947487;29;1274;-76
2022/09/15 16:40:45;;;;;;;;;;;;;;;;;;4944319;28;1455;-76
2022/09/15 16:43:13;;;;;;;;;;;;;;;;;;4945441;28;1418;-76
2022/09/15 16:45:39;;;;;;;;;;;;;;;;;;4948300;28;1614;-76
2022/09/15 16:48:05;;;;;;;;;;;;;;;;;;4947469;29;1333;-77
2022/09/15 16:50:32;;;;;;;;;;;;;;;;;;4945278;29;1405;-75
2022/09/15 16:52:58;;;;;;;;;;;;;;;;;;4947270;28;1405;-77
2022/09/15 16:55:28;;;;;;;;;;;;;;;;;;4948377;28;1107;-76
2022/09/15 16:57:55;;;;;;;;;;;;;;;;;;4945820;28;1982;-76
2022/09/15 17:00:22;;;;;;;;;;;;;;;;;;4938557;28;1512;-76
2022/09/15 17:02:48;;;;;;;;;;;;;;;;;;4947910;28;1349;-76
2022/09/15 17:05:15;;;;;;;;;;;;;;;;;;4949008;28;779;-77
2022/09/15 17:07:41;;;;;;;;;;;;;;;;;;4945960;29;1547;-76
2022/09/15 17:10:08;;;;;;;;;;;;;;;;;;4947350;28;1235;-77
2022/09/15 17:12:34;;;;;;;;;;;;;;;;;;4948070;28;1293;-76
2022/09/15 17:15:01;;;;;;;;;;;;;;;;;;4948615;28;1114;-76